Atlantic Beach, FL

11:21 AM EDT on August 29, 2014 (GMT -0400)
Reed Island | Change Station
CLOSE
Current Station
Personal Weather Station
Location: Jacksonville, FL
Elevation: 10 ft
Nearby Weather Stations

Elev 10 ft 30.39 °N, 81.52 °W | Updated 7 seconds ago

Overcast
Overcast
88.2 °F
Feels Like 95 °F
N
4.0
Wind Variable Wind from ESE
Gusts 6.0 mph

Today
High -- | Low -- °F
--% Chance of Precip.
Yesterday
High -- | Low -- °F
Precip. -- in
7:01 AM 7:52 PM
Waxing Crescent, 15% visible
Pressure 30.06 in
Visibility 10.0 miles
Clouds Overcast 10000 ft
Heat Index 95 °F
Dew Point 72 °F
Humidity 58%
Rainfall 0.00 in
Snow Depth Not available.
UV 2 out of 12
Pollen 8.20 out of 12
Ozone Good
PM2.5 Good
Flu Activity Not available.
METAR KCRG 291353Z 13004KT 10SM OVC100 29/23 A3006 RMK AO2 SLP178 T02940233

More Conditions Fewer Conditions

Pressure 30.06 in
Visibility 10.0 miles
Clouds Overcast 10000 ft
Heat Index 95 °F
Dew Point 72 °F
Humidity 58%
Rainfall 0.00 in
Snow Depth Not available.
UV 2 out of 12
Pollen 8.20 out of 12
Ozone Good
PM2.5 Good
Flu Activity Not available.
METAR KCRG 291353Z 13004KT 10SM OVC100 29/23 A3006 RMK AO2 SLP178 T02940233

More Conditions Fewer Conditions

10-Day Weather Forecast

Almanac

Astronomy

Aug. 29, 2014 Rise Set
Actual Time 7:01 AM EDT 7:52 PM EDT
Civil Twilight 6:36 AM EDT 8:16 PM EDT
Nautical Twilight 6:07 AM EDT 8:45 PM EDT
Astronomical Twilight 5:37 AM EDT 9:15 PM EDT
Moon 10:30 AM EDT 10:09 PM EDT
Length of Visible Light 13h 40m
Length of Day
12h 51m
Tomorrow will be 1m 45s shorter.
Waxing Crescent, 15% of the Moon is Illuminated
Today
Waxing Crescent
Sep 2
First Quarter
Sep 8
Full
Sep 15
Last Quarter
Sep 24
New

Today's Extremes

State Highs State Lows

Community

WunderPhotos

Upload Photos

1,748,263 photos uploaded!

Nearby

Air Quality

  Air Quality AQ Index Pollutant
Yesterday Good
OZONE
Yesterday Good
PM2.5
Current Good
PM2.5
Current Good
OZONE
Friday Good
OZONE
Friday Good
PM2.5
Saturday Good
OZONE
Saturday Good
PM2.5
Sunday Good
OZONE
Sunday Good
PM2.5
Monday Good
OZONE
Monday Good
PM2.5
Tuesday Good
OZONE
Tuesday Good
PM2.5
Wednesday Good
OZONE
Wednesday Good
PM2.5

Snow Depth

Station Depth Elevation
No new snow has been reported.

Earthquake Activity

City Distance Mag. Time & Date
No recent earthquake activity has been reported nearby.
Minimum magnitude displayed is 2.5.

Coastal Water Temperatures

Place Temperature
Mayport (Bar Pilots Dock), FL 82.9 °F
Fernandina Beach, FL 82.9 °F

Nearby Weather Stations